In Rescue
 
Open Full Screen Window  High Contrast Mode
July 13, 2020 7:00 AM PDT
Weather Information
Wind Direction
  ---
Wind Speed
  00 kt (0 mph)
Wind Gust
  00 kt (0 mph)
Altimeter
29.91 in
Visibility
10 SM
Temperature
13° C
55° F
Dewpoint
11° C
52° F
Humidity
88%
1hr Rain Fall
00.00 in.
24hr Rain Fall
00.00 in.
Sky Condition
Few @ 500 ft
VFR

METAR KCVH 131400Z AUTO 00000KT 10SM FEW005 13/11 A2991 RMK A01

FAA Disclaimer: The data displayed is for advisory purposes only and is not to be used for flight planning or operations.